createdAt,value
2022-10-16T00:02:36.387Z,0.40
2022-10-16T00:07:39.039Z,0.30
2022-10-16T00:12:43.005Z,0.45
2022-10-16T00:17:45.611Z,0.50
2022-10-16T00:22:48.217Z,0.45
2022-10-16T00:27:52.117Z,0.28
2022-10-16T00:32:54.840Z,0.40
2022-10-16T00:37:57.540Z,0.30
2022-10-16T00:43:01.519Z,0.38
2022-10-16T00:48:04.247Z,0.45
2022-10-16T00:53:06.941Z,0.40
2022-10-16T00:58:11.406Z,0.30
2022-10-16T01:03:29.743Z,0.40
2022-10-16T01:08:36.669Z,0.32
2022-10-16T01:13:43.624Z,0.30
2022-10-16T01:18:48.848Z,0.40
2022-10-16T01:23:57.089Z,0.40
2022-10-16T01:29:06.006Z,0.40
2022-10-16T01:34:14.983Z,0.40
2022-10-16T01:39:18.417Z,0.35
2022-10-16T01:44:24.387Z,0.40
2022-10-16T01:49:30.171Z,0.32
2022-10-16T01:54:34.478Z,0.40
2022-10-16T01:59:42.965Z,0.30
2022-10-16T02:04:48.731Z,0.40
2022-10-16T02:09:51.619Z,0.40
2022-10-16T02:14:55.857Z,0.40
2022-10-16T02:19:58.835Z,0.30
2022-10-16T02:25:05.236Z,0.40
2022-10-16T02:30:15.151Z,0.50
2022-10-16T02:35:19.591Z,0.40
2022-10-16T02:40:25.192Z,0.40
2022-10-16T02:45:30.148Z,0.60
2022-10-16T02:50:32.787Z,0.40
2022-10-16T02:55:35.428Z,0.40
2022-10-16T03:00:39.492Z,0.80
2022-10-16T03:05:42.150Z,0.38
2022-10-16T03:10:44.935Z,0.40
2022-10-16T03:15:49.426Z,0.40
2022-10-16T03:20:52.081Z,0.40
2022-10-16T03:25:55.037Z,0.50
2022-10-16T03:30:58.985Z,0.40
2022-10-16T03:36:01.786Z,0.40
2022-10-16T03:41:04.799Z,0.40
2022-10-16T03:46:08.797Z,0.40
2022-10-16T03:51:11.547Z,0.63
2022-10-16T03:56:14.180Z,0.43
2022-10-16T04:01:18.278Z,0.35
2022-10-16T04:06:20.875Z,0.55
2022-10-16T04:11:23.533Z,0.50
2022-10-16T04:16:27.535Z,0.50
2022-10-16T04:21:30.235Z,0.50
2022-10-16T04:26:33.822Z,0.40
2022-10-16T04:31:37.759Z,0.40
2022-10-16T04:36:40.334Z,0.40
2022-10-16T04:41:42.886Z,0.30
2022-10-16T04:46:46.812Z,0.50
2022-10-16T04:51:49.486Z,0.50
2022-10-16T04:56:52.919Z,0.40
2022-10-16T05:01:57.174Z,0.28
2022-10-16T05:06:59.791Z,0.60
2022-10-16T05:12:04.403Z,0.40
2022-10-16T05:17:08.374Z,0.60
2022-10-16T05:22:11.055Z,0.90
2022-10-16T05:27:19.674Z,0.50
2022-10-16T05:32:23.702Z,0.45
2022-10-16T05:37:26.509Z,0.40
2022-10-16T05:42:29.420Z,0.80
2022-10-16T05:47:34.267Z,0.60
2022-10-16T05:52:37.004Z,0.43
2022-10-16T05:57:39.685Z,0.40
2022-10-16T06:02:43.669Z,0.50
2022-10-16T06:07:46.260Z,0.40
2022-10-16T06:12:48.912Z,0.70
2022-10-16T06:17:52.876Z,0.80
2022-10-16T06:22:55.525Z,0.70
2022-10-16T06:27:58.163Z,0.50
2022-10-16T06:33:02.155Z,0.40
2022-10-16T06:38:04.816Z,0.60
2022-10-16T06:43:07.549Z,0.40
2022-10-16T06:48:11.598Z,0.50
2022-10-16T06:53:14.185Z,0.50
2022-10-16T06:58:16.841Z,0.52
2022-10-16T07:03:20.810Z,1.80
2022-10-16T07:08:23.399Z,0.40
2022-10-16T07:13:26.241Z,0.40
2022-10-16T07:23:34.111Z,0.40
2022-10-16T07:28:36.778Z,0.40
2022-10-16T07:33:42.811Z,0.40
2022-10-16T07:38:46.000Z,0.30
2022-10-16T07:43:49.198Z,0.30
2022-10-16T07:48:53.468Z,0.57
2022-10-16T07:53:56.250Z,0.50
2022-10-16T07:58:58.982Z,0.35
2022-10-16T08:04:02.977Z,0.30
2022-10-16T08:09:05.979Z,0.43
2022-10-16T08:14:08.682Z,1.15
2022-10-16T08:19:12.866Z,0.63
2022-10-16T08:24:15.519Z,0.40
2022-10-16T08:29:18.139Z,0.30
2022-10-16T08:34:22.094Z,0.20
2022-10-16T08:39:24.863Z,0.28
2022-10-16T08:44:37.070Z,0.20
2022-10-16T08:49:43.505Z,0.50
2022-10-16T08:54:49.417Z,0.40
2022-10-16T08:59:52.322Z,0.30
2022-10-16T09:05:04.456Z,0.38
2022-10-16T09:10:16.207Z,0.30
2022-10-16T09:15:25.796Z,0.20
2022-10-16T09:20:34.999Z,0.40
2022-10-16T09:25:40.452Z,0.43
2022-10-16T09:30:43.415Z,0.47
2022-10-16T09:35:49.187Z,0.40
2022-10-16T09:40:58.901Z,0.40
2022-10-16T09:46:07.763Z,0.55
2022-10-16T09:51:20.270Z,0.50
2022-10-16T09:56:25.279Z,0.60
2022-10-16T10:01:32.713Z,0.43
2022-10-16T10:06:39.001Z,0.50
2022-10-16T10:11:51.806Z,0.40
2022-10-16T10:17:03.381Z,0.60
2022-10-16T10:22:17.921Z,0.95
2022-10-16T10:27:20.790Z,0.90
2022-10-16T10:32:30.640Z,0.75
2022-10-16T10:37:45.721Z,0.60
2022-10-16T10:42:52.401Z,0.50
2022-10-16T10:48:05.162Z,0.70
2022-10-16T10:53:18.053Z,0.60
2022-10-16T10:58:59.338Z,0.82
2022-10-16T11:04:21.799Z,0.70
2022-10-16T11:09:28.177Z,0.60
2022-10-16T11:14:35.542Z,0.70
2022-10-16T11:19:43.865Z,0.77
2022-10-16T11:24:51.999Z,0.60
2022-10-16T11:29:58.748Z,0.68
2022-10-16T11:35:05.008Z,0.80
2022-10-16T11:40:21.338Z,0.65
2022-10-16T11:45:29.623Z,0.63
2022-10-16T11:50:36.910Z,0.80
2022-10-16T11:55:46.051Z,1.00
2022-10-16T12:00:55.507Z,0.70
2022-10-16T12:06:08.935Z,0.73
2022-10-16T12:11:25.674Z,0.65
2022-10-16T12:16:28.256Z,0.60
2022-10-16T12:21:32.623Z,0.70
2022-10-16T12:26:40.086Z,1.00
2022-10-16T12:31:57.292Z,0.55
2022-10-16T12:37:11.487Z,0.60
2022-10-16T12:42:25.873Z,0.70
2022-10-16T12:47:39.081Z,0.57
2022-10-16T12:52:41.955Z,0.60
2022-10-16T12:58:00.133Z,0.50
2022-10-16T13:03:35.377Z,0.50
2022-10-16T13:08:52.611Z,0.70
2022-10-16T13:14:17.083Z,0.60
2022-10-16T13:19:26.730Z,0.60
2022-10-16T13:24:44.332Z,0.65
2022-10-16T13:29:56.247Z,0.68
2022-10-16T13:34:59.284Z,0.52
2022-10-16T13:40:11.499Z,0.70
2022-10-16T13:45:21.242Z,0.50
2022-10-16T13:50:24.266Z,0.50
2022-10-16T13:55:27.146Z,0.50
2022-10-16T14:00:31.387Z,0.90
2022-10-16T14:05:34.390Z,1.00
2022-10-16T14:10:37.312Z,0.40
2022-10-16T14:15:41.563Z,0.40
2022-10-16T14:20:44.446Z,0.50
2022-10-16T14:25:47.145Z,0.60
2022-10-16T14:30:55.703Z,1.00
2022-10-16T14:36:04.131Z,0.60
2022-10-16T14:41:07.529Z,0.52
2022-10-16T14:46:15.233Z,0.45
2022-10-16T14:51:19.224Z,0.75
2022-10-16T14:56:23.404Z,0.43
2022-10-16T15:01:27.554Z,0.30
2022-10-16T15:06:30.394Z,0.70
2022-10-16T15:11:33.943Z,0.40
2022-10-16T15:16:38.243Z,0.95
2022-10-16T15:21:50.593Z,0.43
2022-10-16T15:26:53.241Z,0.60
2022-10-16T15:31:55.899Z,0.60
2022-10-16T15:37:00.786Z,0.70
2022-10-16T15:42:03.625Z,0.60
2022-10-16T15:47:06.536Z,0.40
2022-10-16T15:52:10.649Z,0.30
2022-10-16T15:57:13.266Z,0.30
2022-10-16T16:02:15.916Z,0.50
2022-10-16T16:07:20.185Z,0.57
2022-10-16T16:12:22.891Z,2.50
2022-10-16T16:17:25.741Z,0.90
2022-10-16T16:22:30.821Z,0.80
2022-10-16T16:27:35.322Z,0.80
2022-10-16T16:32:38.106Z,0.88
2022-10-16T16:37:42.058Z,1.00
2022-10-16T16:42:44.712Z,1.17
2022-10-16T16:47:47.370Z,2.03
2022-10-16T16:52:51.428Z,3.65
2022-10-16T16:57:54.468Z,3.03
2022-10-16T17:02:57.500Z,2.60
2022-10-16T17:08:01.471Z,2.05
2022-10-16T17:13:04.181Z,1.55
2022-10-16T17:18:06.950Z,2.78
2022-10-16T17:23:12.019Z,4.95
2022-10-16T17:28:15.358Z,5.25
2022-10-16T17:33:18.147Z,5.40
2022-10-16T17:38:22.784Z,7.07
2022-10-16T17:43:25.762Z,4.80
2022-10-16T17:48:28.606Z,6.63
2022-10-16T17:53:33.177Z,6.13
2022-10-16T17:58:36.053Z,5.25
2022-10-16T18:03:38.747Z,5.22
2022-10-16T18:08:42.688Z,3.35
2022-10-16T18:13:45.541Z,3.15
2022-10-16T18:18:48.294Z,2.60
2022-10-16T18:23:52.485Z,2.25
2022-10-16T18:28:56.812Z,2.45
2022-10-16T18:33:59.643Z,2.50
2022-10-16T18:39:09.151Z,2.72
2022-10-16T18:44:13.152Z,2.38
2022-10-16T18:49:15.843Z,3.20
2022-10-16T18:54:19.853Z,2.85
2022-10-16T18:59:22.588Z,3.50
2022-10-16T19:04:25.270Z,2.70
2022-10-16T19:09:29.349Z,3.80
2022-10-16T19:14:32.758Z,2.33
2022-10-16T19:19:35.929Z,2.50
2022-10-16T19:24:40.154Z,2.30
2022-10-16T19:29:42.970Z,2.25
2022-10-16T19:34:46.869Z,2.70
2022-10-16T19:39:51.687Z,2.38
2022-10-16T19:44:54.425Z,1.95
2022-10-16T19:49:57.060Z,2.30
2022-10-16T19:55:01.073Z,2.50
2022-10-16T20:00:05.045Z,2.00
2022-10-16T20:05:10.258Z,1.63
2022-10-16T20:10:14.247Z,1.30
2022-10-16T20:15:16.878Z,1.67
2022-10-16T20:20:19.559Z,2.15
2022-10-16T20:25:23.551Z,1.38
2022-10-16T20:30:26.201Z,1.48
2022-10-16T20:35:29.026Z,1.55
2022-10-16T20:40:35.273Z,3.17
2022-10-16T20:45:37.858Z,2.20
2022-10-16T20:50:41.004Z,1.30
2022-10-16T20:55:44.951Z,1.90
2022-10-16T21:00:47.526Z,1.50
2022-10-16T21:05:50.113Z,2.00
2022-10-16T21:10:54.129Z,1.75
2022-10-16T21:15:56.695Z,1.80
2022-10-16T21:20:59.382Z,1.60
2022-10-16T21:26:03.423Z,1.60
2022-10-16T21:31:12.857Z,1.58
2022-10-16T21:36:17.205Z,2.00
2022-10-16T21:41:22.875Z,1.40
2022-10-16T21:46:27.009Z,1.60
2022-10-16T21:51:31.135Z,2.00
2022-10-16T21:56:35.544Z,1.98
2022-10-16T22:01:38.185Z,2.08
2022-10-16T22:06:41.205Z,1.80
2022-10-16T22:11:45.740Z,2.10
2022-10-16T22:16:48.906Z,2.35
2022-10-16T22:21:54.531Z,1.48
2022-10-16T22:26:58.474Z,1.42
2022-10-16T22:32:01.238Z,1.70
2022-10-16T22:37:03.890Z,1.60
2022-10-16T22:42:08.150Z,1.70
2022-10-16T22:47:10.929Z,1.75
2022-10-16T22:52:15.198Z,1.40
2022-10-16T22:57:19.156Z,1.40
2022-10-16T23:02:21.804Z,1.40
2022-10-16T23:07:24.394Z,1.50
2022-10-16T23:12:28.780Z,1.40
2022-10-16T23:17:31.710Z,1.50
2022-10-16T23:22:34.330Z,1.83
2022-10-16T23:27:38.414Z,1.83
2022-10-16T23:32:41.600Z,1.65
2022-10-16T23:37:44.261Z,1.75
2022-10-16T23:42:48.229Z,1.63
2022-10-16T23:47:51.015Z,1.80
2022-10-16T23:52:53.696Z,1.95
2022-10-16T23:57:57.766Z,2.17
